Time;durP1;ratioP1;P1;durP2;ratioP2;P2;SDS_P1;SDS_P2;PMS_P1;PMS_P2;Temp;Humidity;BMP_temperature;BMP_pressure;BME280_temperature;BME280_humidity;BME280_pressure;Samples;Min_cycle;Max_cycle;Signal;HPM_P1;HPM_P2
2023/03/30 00:00:17;;;;;;;19.48;12.13;;;10.40;99.90;;;;;;5062687;28;20131;-67
2023/03/30 00:02:44;;;;;;;20.65;11.95;;;10.40;99.90;;;;;;5062119;28;20543;-67
2023/03/30 00:05:09;;;;;;;19.30;11.57;;;10.50;99.90;;;;;;5061135;28;20111;-68
2023/03/30 00:07:42;;;;;;;16.13;11.00;;;10.50;99.90;;;;;;5063894;28;20482;-67
2023/03/30 00:10:16;;;;;;;15.65;10.25;;;10.40;99.90;;;;;;5061600;28;20085;-68
2023/03/30 00:12:44;;;;;;;18.42;10.68;;;10.50;99.90;;;;;;5055999;28;20049;-68
2023/03/30 00:15:11;;;;;;;17.55;10.13;;;10.50;99.90;;;;;;5063419;28;20478;-67
2023/03/30 00:17:37;;;;;;;14.27;9.95;;;10.50;99.90;;;;;;5054962;28;20123;-67
2023/03/30 00:20:10;;;;;;;18.85;9.70;;;10.50;99.90;;;;;;5062277;28;20041;-68
2023/03/30 00:22:40;;;;;;;17.00;10.70;;;10.60;99.90;;;;;;5061730;28;20047;-67
2023/03/30 00:25:09;;;;;;;19.00;10.57;;;10.60;99.90;;;;;;5059829;28;20049;-67
2023/03/30 00:27:39;;;;;;;15.95;10.38;;;10.60;99.90;;;;;;5064092;28;20048;-68
2023/03/30 00:30:07;;;;;;;13.50;9.45;;;10.60;99.90;;;;;;5065110;28;20508;-67
2023/03/30 00:32:33;;;;;;;15.20;9.25;;;10.60;99.90;;;;;;5063887;28;20041;-68
2023/03/30 00:35:00;;;;;;;16.05;9.88;;;10.60;99.90;;;;;;5068696;28;20036;-68
2023/03/30 00:37:26;;;;;;;14.60;9.20;;;10.60;99.90;;;;;;5068088;28;20052;-67
2023/03/30 00:39:52;;;;;;;15.25;9.38;;;10.50;99.90;;;;;;5065283;28;20048;-67
2023/03/30 00:42:20;;;;;;;12.60;9.05;;;10.50;99.90;;;;;;5067081;28;20032;-67
2023/03/30 00:45:18;;;;;;;13.75;9.90;;;10.40;99.90;;;;;;5080639;28;20474;-67
2023/03/30 00:48:01;;;;;;;14.25;8.57;;;10.40;99.90;;;;;;5066526;28;20075;-68
2023/03/30 00:50:45;;;;;;;14.95;8.70;;;10.30;99.90;;;;;;5065181;28;20037;-67
2023/03/30 00:53:20;;;;;;;16.27;9.20;;;10.30;99.90;;;;;;5066885;28;20448;-67
2023/03/30 00:55:56;;;;;;;11.65;8.77;;;10.30;99.90;;;;;;5063872;28;20050;-67
2023/03/30 00:58:23;;;;;;;12.45;8.55;;;10.20;99.90;;;;;;5063436;28;20509;-67
2023/03/30 01:00:49;;;;;;;15.23;7.95;;;10.20;99.90;;;;;;5064948;28;20048;-67
2023/03/30 01:03:29;;;;;;;14.18;8.55;;;10.20;99.90;;;;;;5064396;28;20460;-68
2023/03/30 01:05:57;;;;;;;17.23;8.68;;;10.20;99.90;;;;;;5063942;28;20041;-68
2023/03/30 01:08:26;;;;;;;13.00;7.78;;;10.20;99.90;;;;;;5076955;28;20512;-68
2023/03/30 01:10:52;;;;;;;12.50;8.20;;;10.20;99.90;;;;;;5066600;28;20500;-67
2023/03/30 01:13:19;;;;;;;11.43;7.75;;;10.20;99.90;;;;;;5076653;28;20029;-67
2023/03/30 01:16:21;;;;;;;15.95;7.18;;;10.20;99.90;;;;;;5065688;28;20041;-68
2023/03/30 01:19:00;;;;;;;15.75;6.38;;;10.20;99.90;;;;;;5065817;28;20135;-67
2023/03/30 01:22:03;;;;;;;13.25;7.00;;;10.20;99.90;;;;;;5065535;28;21369;-67
2023/03/30 01:25:01;;;;;;;11.63;6.05;;;10.30;99.90;;;;;;5063190;28;20094;-67
2023/03/30 01:28:05;;;;;;;10.02;6.28;;;10.30;99.90;;;;;;5063556;28;20080;-68
2023/03/30 01:31:01;;;;;;;7.95;5.47;;;10.40;99.90;;;;;;5045026;28;20055;-67
2023/03/30 01:33:57;;;;;;;12.60;6.43;;;10.50;99.90;;;;;;5067844;28;21216;-67
2023/03/30 01:36:38;;;;;;;7.93;5.25;;;10.60;99.90;;;;;;5065405;28;20063;-68
2023/03/30 01:39:32;;;;;;;9.88;5.15;;;10.80;99.90;;;;;;5064994;28;20131;-68
2023/03/30 01:42:09;;;;;;;6.90;4.85;;;10.90;99.90;;;;;;5062543;28;20500;-67
2023/03/30 01:44:59;;;;;;;9.85;4.90;;;11.10;99.90;;;;;;5059432;28;20131;-67
2023/03/30 01:48:06;;;;;;;9.32;5.15;;;11.30;99.90;;;;;;5063214;28;20032;-67
2023/03/30 01:51:03;;;;;;;9.07;4.55;;;11.30;99.90;;;;;;5065754;28;20063;-67
2023/03/30 01:53:40;;;;;;;7.18;4.13;;;11.40;99.90;;;;;;5056958;28;20058;-67
2023/03/30 01:56:17;;;;;;;7.05;4.13;;;11.50;99.90;;;;;;5057989;28;20091;-67
2023/03/30 01:58:51;;;;;;;8.95;4.53;;;11.60;99.90;;;;;;5063821;28;20494;-67
2023/03/30 02:01:26;;;;;;;7.15;4.32;;;11.60;99.90;;;;;;5058998;28;20048;-67
2023/03/30 02:03:56;;;;;;;11.20;4.45;;;11.60;99.90;;;;;;5063599;28;20040;-67
2023/03/30 02:06:39;;;;;;;11.82;4.72;;;11.70;99.90;;;;;;5061138;28;20486;-68
2023/03/30 02:09:15;;;;;;;9.23;4.70;;;11.70;99.90;;;;;;5061564;28;20494;-68
2023/03/30 02:11:45;;;;;;;8.45;4.45;;;11.70;99.90;;;;;;5064737;28;20072;-67
2023/03/30 02:14:14;;;;;;;11.45;5.10;;;11.80;99.90;;;;;;5062750;28;20043;-67
2023/03/30 02:16:45;;;;;;;6.07;4.30;;;11.80;99.90;;;;;;5063727;28;21327;-67
2023/03/30 02:19:23;;;;;;;7.63;4.07;;;11.90;99.90;;;;;;5062434;28;20135;-67
2023/03/30 02:21:49;;;;;;;8.18;4.25;;;11.80;99.90;;;;;;5064098;28;20120;-67
2023/03/30 02:24:24;;;;;;;8.15;4.28;;;11.90;99.90;;;;;;5058238;28;20119;-67
2023/03/30 02:26:52;;;;;;;8.27;3.95;;;11.90;99.90;;;;;;5063318;28;20459;-68
2023/03/30 02:29:21;;;;;;;8.82;4.20;;;12.00;99.90;;;;;;5063318;28;20485;-68
2023/03/30 02:31:49;;;;;;;7.35;3.90;;;11.90;99.90;;;;;;5061801;28;20422;-68
2023/03/30 02:34:47;;;;;;;6.78;4.03;;;11.90;99.90;;;;;;5064450;28;20127;-67
2023/03/30 02:37:39;;;;;;;10.45;4.28;;;12.00;99.90;;;;;;5016678;28;1159340;-68
2023/03/30 02:40:29;;;;;;;9.65;4.50;;;12.00;99.90;;;;;;5062431;28;20060;-68
2023/03/30 02:43:30;;;;;;;11.00;4.60;;;11.90;99.90;;;;;;5043093;28;20135;-67
2023/03/30 02:46:17;;;;;;;9.80;3.97;;;11.90;99.90;;;;;;5060899;28;20073;-68
2023/03/30 02:49:01;;;;;;;8.80;3.63;;;12.00;99.90;;;;;;5062229;28;20044;-68
2023/03/30 02:51:36;;;;;;;7.82;3.95;;;12.10;99.90;;;;;;5070627;28;20048;-67
2023/03/30 02:54:19;;;;;;;7.40;3.78;;;12.20;99.90;;;;;;5054354;28;20044;-68
2023/03/30 02:57:06;;;;;;;6.72;3.90;;;12.20;99.90;;;;;;5064820;28;20097;-68
2023/03/30 02:59:55;;;;;;;7.22;4.43;;;12.20;99.90;;;;;;5063553;28;20051;-68
2023/03/30 03:02:27;;;;;;;7.10;3.75;;;12.20;99.90;;;;;;5061782;28;20048;-67
2023/03/30 03:04:53;;;;;;;6.45;4.10;;;12.20;99.90;;;;;;5063201;28;20489;-67
2023/03/30 03:07:21;;;;;;;8.55;4.00;;;12.10;99.90;;;;;;5061870;28;20044;-67
2023/03/30 03:09:47;;;;;;;9.85;4.15;;;12.10;99.90;;;;;;5063004;28;20126;-67
2023/03/30 03:12:13;;;;;;;8.55;3.78;;;12.00;99.90;;;;;;5065520;28;20485;-67
2023/03/30 03:14:39;;;;;;;6.75;4.05;;;11.90;99.90;;;;;;5047539;28;20040;-67
2023/03/30 03:17:05;;;;;;;6.20;3.60;;;11.90;99.90;;;;;;5047310;28;20077;-67
2023/03/30 03:19:31;;;;;;;7.05;3.72;;;11.80;99.90;;;;;;5045763;28;20040;-67
2023/03/30 03:21:57;;;;;;;7.88;3.85;;;11.80;99.90;;;;;;5063880;28;20039;-67
2023/03/30 03:24:22;;;;;;;7.35;4.07;;;11.80;99.90;;;;;;5059317;28;20040;-67
2023/03/30 03:26:48;;;;;;;8.00;3.70;;;11.80;99.90;;;;;;5045861;28;20063;-67
2023/03/30 03:29:14;;;;;;;8.23;4.00;;;11.70;99.90;;;;;;5062022;28;20124;-67
2023/03/30 03:31:40;;;;;;;6.63;4.15;;;11.60;99.90;;;;;;5060236;28;20029;-67
2023/03/30 03:34:06;;;;;;;14.70;4.70;;;11.60;99.90;;;;;;5064454;28;20340;-68
2023/03/30 03:36:35;;;;;;;9.68;4.22;;;11.60;99.90;;;;;;5059072;28;20127;-67
2023/03/30 03:39:01;;;;;;;6.22;3.80;;;11.60;99.90;;;;;;5061562;28;20055;-67
2023/03/30 03:41:29;;;;;;;6.47;3.85;;;11.70;99.90;;;;;;5063474;28;20049;-67
2023/03/30 03:43:55;;;;;;;7.05;3.83;;;11.80;99.90;;;;;;5062681;28;20111;-67
2023/03/30 03:46:21;;;;;;;8.27;4.43;;;11.80;99.90;;;;;;5060967;28;20596;-67
2023/03/30 03:48:46;;;;;;;10.13;3.70;;;11.80;99.90;;;;;;5063676;28;20057;-67
2023/03/30 03:51:12;;;;;;;10.55;4.07;;;11.90;99.90;;;;;;5063592;28;20072;-67
2023/03/30 03:53:38;;;;;;;5.88;3.30;;;12.00;99.90;;;;;;5065590;28;20077;-67
2023/03/30 03:56:04;;;;;;;5.20;3.75;;;12.00;99.90;;;;;;5061700;28;20044;-67
2023/03/30 03:58:29;;;;;;;11.57;4.10;;;12.00;99.90;;;;;;5063662;28;20056;-67
2023/03/30 04:00:59;;;;;;;5.95;3.22;;;12.00;99.90;;;;;;5064196;28;20032;-67
2023/03/30 04:03:25;;;;;;;7.72;3.50;;;12.10;99.90;;;;;;5062090;28;20095;-67
2023/03/30 04:05:50;;;;;;;7.72;3.75;;;12.10;99.90;;;;;;5047523;28;20556;-67
2023/03/30 04:08:16;;;;;;;10.82;3.53;;;12.10;99.90;;;;;;5055716;28;20041;-67
2023/03/30 04:10:42;;;;;;;8.07;3.30;;;12.10;99.90;;;;;;5062611;28;20048;-67
2023/03/30 04:13:09;;;;;;;7.03;3.90;;;12.10;99.90;;;;;;5057802;28;20643;-67
2023/03/30 04:15:35;;;;;;;8.15;3.42;;;12.10;99.90;;;;;;5065015;28;20115;-67
2023/03/30 04:18:01;;;;;;;5.20;3.22;;;12.10;99.90;;;;;;5060789;28;20456;-67
2023/03/30 04:20:28;;;;;;;5.22;3.10;;;12.20;99.90;;;;;;5061665;28;20127;-67
2023/03/30 04:22:54;;;;;;;5.25;3.47;;;12.20;99.90;;;;;;5063964;28;20033;-67
2023/03/30 04:25:24;;;;;;;7.00;3.53;;;12.20;99.90;;;;;;5063525;28;20056;-67
2023/03/30 04:27:54;;;;;;;7.00;3.78;;;12.20;99.90;;;;;;5060736;28;20090;-68
2023/03/30 04:30:21;;;;;;;6.32;3.60;;;12.20;99.90;;;;;;5060079;28;20045;-68
2023/03/30 04:33:01;;;;;;;5.63;3.45;;;12.20;99.90;;;;;;5060177;28;20036;-67
2023/03/30 04:35:31;;;;;;;7.18;3.88;;;12.20;99.90;;;;;;5073469;28;20075;-67
2023/03/30 04:37:59;;;;;;;8.38;3.67;;;12.10;99.90;;;;;;5059623;28;20114;-67
2023/03/30 04:40:25;;;;;;;8.02;3.63;;;12.00;99.90;;;;;;5060949;28;20041;-67
2023/03/30 04:42:51;;;;;;;8.77;4.00;;;12.00;99.90;;;;;;5062592;28;20512;-67
2023/03/30 04:45:17;;;;;;;8.32;3.50;;;11.90;99.90;;;;;;5058444;28;20036;-67
2023/03/30 04:47:44;;;;;;;8.52;4.25;;;11.90;99.90;;;;;;5058042;28;20147;-68
2023/03/30 04:50:11;;;;;;;6.30;3.72;;;12.00;99.90;;;;;;5048550;28;20044;-67
2023/03/30 04:52:37;;;;;;;6.10;3.85;;;11.90;99.90;;;;;;5057946;28;20044;-67
2023/03/30 04:55:03;;;;;;;6.57;3.50;;;11.90;99.90;;;;;;5066820;28;20033;-67
2023/03/30 04:57:29;;;;;;;7.38;3.45;;;11.90;99.90;;;;;;5068017;28;20040;-67
2023/03/30 04:59:55;;;;;;;6.20;3.47;;;11.90;99.90;;;;;;5066826;28;20147;-67
2023/03/30 05:02:21;;;;;;;4.35;3.33;;;11.80;99.90;;;;;;5063629;28;20095;-67
2023/03/30 05:04:47;;;;;;;7.78;3.65;;;11.80;99.90;;;;;;5064381;28;20048;-67
2023/03/30 05:07:13;;;;;;;5.90;3.63;;;11.90;99.90;;;;;;5058496;28;20615;-67
2023/03/30 05:09:39;;;;;;;11.70;4.53;;;11.90;99.90;;;;;;5059520;28;20047;-67
2023/03/30 05:12:08;;;;;;;6.60;3.70;;;11.90;99.90;;;;;;5077435;28;20029;-67
2023/03/30 05:14:34;;;;;;;5.68;3.30;;;11.90;99.90;;;;;;5065090;28;20025;-67
2023/03/30 05:16:59;;;;;;;6.65;3.45;;;11.90;99.90;;;;;;5050428;28;20386;-67
2023/03/30 05:19:25;;;;;;;8.68;3.72;;;11.90;99.90;;;;;;5049759;28;20075;-67
2023/03/30 05:21:51;;;;;;;6.15;3.65;;;11.80;99.90;;;;;;5033782;28;20420;-67
2023/03/30 05:24:16;;;;;;;8.90;3.60;;;11.90;99.90;;;;;;5066088;28;20048;-67
2023/03/30 05:26:42;;;;;;;7.25;3.45;;;11.90;99.90;;;;;;5047011;28;20053;-67
2023/03/30 05:29:08;;;;;;;8.07;3.50;;;11.80;99.90;;;;;;5067708;28;20453;-67
2023/03/30 05:31:34;;;;;;;5.88;3.50;;;11.90;99.90;;;;;;5068988;28;20162;-67
2023/03/30 05:34:00;;;;;;;7.90;3.53;;;11.90;99.90;;;;;;5077321;28;20040;-67
2023/03/30 05:36:26;;;;;;;7.80;3.55;;;11.90;99.90;;;;;;5066315;28;20632;-67
2023/03/30 05:38:51;;;;;;;5.22;3.55;;;11.90;99.90;;;;;;5060981;28;20161;-67
2023/03/30 05:41:17;;;;;;;7.68;4.00;;;11.90;99.90;;;;;;5067382;28;20496;-67
2023/03/30 05:43:43;;;;;;;7.50;3.60;;;11.90;99.90;;;;;;5070545;28;20197;-67
2023/03/30 05:46:09;;;;;;;7.32;3.42;;;11.90;99.90;;;;;;5072366;28;20031;-67
2023/03/30 05:48:34;;;;;;;9.02;3.47;;;11.90;99.90;;;;;;5067428;28;20043;-67
2023/03/30 05:51:00;;;;;;;12.48;3.42;;;11.90;99.90;;;;;;5050560;28;20032;-67
2023/03/30 05:53:26;;;;;;;8.77;3.63;;;11.90;99.90;;;;;;5069912;28;20055;-67
2023/03/30 05:55:52;;;;;;;5.30;3.25;;;11.90;99.90;;;;;;5071840;28;20033;-67
2023/03/30 05:58:18;;;;;;;6.20;3.10;;;11.90;99.90;;;;;;5045665;28;20405;-67
2023/03/30 06:00:47;;;;;;;4.57;3.08;;;11.90;99.90;;;;;;5067179;28;20036;-67
2023/03/30 06:03:13;;;;;;;4.88;3.20;;;11.90;99.90;;;;;;5070676;28;20068;-68
2023/03/30 06:05:40;;;;;;;8.18;3.92;;;12.00;99.90;;;;;;5066513;28;20405;-67
2023/03/30 06:08:09;;;;;;;6.07;3.30;;;12.00;99.90;;;;;;5077447;28;20115;-69
2023/03/30 06:10:36;;;;;;;5.20;3.30;;;12.10;99.90;;;;;;5070781;28;20094;-67
2023/03/30 06:13:02;;;;;;;4.75;3.10;;;12.10;99.90;;;;;;5070861;28;20037;-67
2023/03/30 06:15:28;;;;;;;8.63;4.00;;;12.10;99.90;;;;;;5063854;28;20468;-67
2023/03/30 06:17:55;;;;;;;6.32;3.20;;;12.20;99.90;;;;;;5047080;28;20033;-67
2023/03/30 06:20:23;;;;;;;8.60;3.55;;;12.20;99.90;;;;;;5061704;28;20049;-67
2023/03/30 06:22:49;;;;;;;5.82;2.83;;;12.30;99.90;;;;;;5037647;28;20123;-67
2023/03/30 06:25:15;;;;;;;11.48;3.00;;;12.40;99.90;;;;;;5070040;28;20086;-67
2023/03/30 06:27:41;;;;;;;6.68;2.75;;;12.50;99.90;;;;;;5070751;28;20093;-67
2023/03/30 06:30:10;;;;;;;6.65;3.25;;;12.60;99.90;;;;;;5062445;28;20704;-67
2023/03/30 06:32:37;;;;;;;6.03;3.00;;;12.60;99.90;;;;;;5048141;28;20041;-67
2023/03/30 06:35:03;;;;;;;9.23;2.90;;;12.70;99.90;;;;;;5066150;28;20405;-67
2023/03/30 06:37:35;;;;;;;7.10;2.80;;;12.60;99.90;;;;;;5068423;28;20078;-67
2023/03/30 06:40:06;;;;;;;7.43;2.42;;;12.60;99.90;;;;;;5049247;28;20128;-67
2023/03/30 06:42:33;;;;;;;11.43;2.92;;;12.60;99.90;;;;;;5069876;28;20040;-68
2023/03/30 06:44:58;;;;;;;6.45;2.60;;;12.60;99.90;;;;;;5068347;28;20114;-67
2023/03/30 06:47:25;;;;;;;7.05;2.95;;;12.60;99.90;;;;;;5050057;28;20374;-67
2023/03/30 06:49:50;;;;;;;6.30;2.75;;;12.60;99.90;;;;;;5067889;28;20047;-67
2023/03/30 06:52:16;;;;;;;5.57;2.90;;;12.60;99.90;;;;;;5070757;28;20036;-67
2023/03/30 06:54:42;;;;;;;8.18;2.83;;;12.60;99.90;;;;;;5036055;28;20405;-67
2023/03/30 06:57:08;;;;;;;8.70;2.92;;;12.60;99.90;;;;;;5068685;28;20028;-69
2023/03/30 06:59:34;;;;;;;10.00;3.30;;;12.60;99.90;;;;;;5068750;28;20459;-68
2023/03/30 07:02:03;;;;;;;10.13;3.50;;;12.60;99.90;;;;;;5068950;28;20059;-68
2023/03/30 07:04:29;;;;;;;6.03;2.80;;;12.70;99.90;;;;;;5067162;28;20060;-68
2023/03/30 07:06:56;;;;;;;6.60;2.88;;;12.80;99.90;;;;;;5067594;28;20075;-67
2023/03/30 07:09:25;;;;;;;9.18;2.88;;;12.80;99.90;;;;;;5064728;28;20044;-67
2023/03/30 07:11:51;;;;;;;5.57;2.53;;;12.80;99.90;;;;;;5069245;28;20039;-68
2023/03/30 07:14:17;;;;;;;5.10;2.60;;;12.80;99.90;;;;;;5069140;28;20032;-67
2023/03/30 07:16:42;;;;;;;7.78;2.92;;;12.80;99.90;;;;;;5067984;28;20048;-68
2023/03/30 07:19:08;;;;;;;8.30;2.50;;;12.80;99.90;;;;;;5070084;28;20032;-67
2023/03/30 07:21:34;;;;;;;5.82;2.40;;;12.80;99.90;;;;;;5057139;28;20044;-67
2023/03/30 07:24:00;;;;;;;4.95;2.45;;;12.70;99.90;;;;;;5070471;28;20040;-67
2023/03/30 07:26:30;;;;;;;7.40;2.40;;;12.70;99.90;;;;;;5069805;28;20044;-67
2023/03/30 07:28:56;;;;;;;6.32;2.72;;;12.70;99.90;;;;;;5062066;28;20092;-67
2023/03/30 07:31:23;;;;;;;6.53;2.47;;;12.60;99.90;;;;;;5052322;28;20269;-67
2023/03/30 07:33:49;;;;;;;6.07;2.90;;;12.60;99.90;;;;;;5069256;28;20044;-67
2023/03/30 07:36:18;;;;;;;7.82;2.70;;;12.60;99.90;;;;;;5070020;28;20028;-67
2023/03/30 07:38:47;;;;;;;6.18;2.70;;;12.60;99.90;;;;;;5066083;28;20067;-67
2023/03/30 07:41:15;;;;;;;5.38;2.95;;;12.50;99.90;;;;;;5069652;28;20044;-67
2023/03/30 07:43:41;;;;;;;6.72;2.45;;;12.50;99.90;;;;;;5062573;28;20514;-67
2023/03/30 07:46:08;;;;;;;9.73;2.70;;;12.50;99.90;;;;;;5066443;28;20072;-67
2023/03/30 07:48:34;;;;;;;5.05;2.30;;;12.50;99.90;;;;;;5061780;28;20040;-67
2023/03/30 07:51:06;;;;;;;7.30;2.47;;;12.40;99.90;;;;;;5068104;28;20033;-67
2023/03/30 07:53:32;;;;;;;11.23;3.13;;;12.50;99.90;;;;;;5065451;28;20062;-67
2023/03/30 07:55:59;;;;;;;6.47;2.47;;;12.50;99.90;;;;;;5064027;28;20025;-67
2023/03/30 07:58:25;;;;;;;8.55;2.55;;;12.50;99.90;;;;;;5063404;28;20055;-67
2023/03/30 08:00:52;;;;;;;9.65;2.97;;;12.70;99.90;;;;;;5070235;28;20036;-67
2023/03/30 08:03:20;;;;;;;12.75;2.90;;;12.70;99.90;;;;;;5067341;28;20044;-67
2023/03/30 08:05:59;;;;;;;11.52;2.78;;;12.70;99.90;;;;;;5066788;28;20115;-67
2023/03/30 08:08:26;;;;;;;16.85;3.53;;;12.80;99.90;;;;;;5067230;28;20102;-67
2023/03/30 08:10:52;;;;;;;10.63;3.25;;;12.80;99.90;;;;;;5067933;28;20036;-68
2023/03/30 08:13:19;;;;;;;14.38;3.40;;;12.80;99.90;;;;;;5056881;28;20033;-67
2023/03/30 08:15:45;;;;;;;11.95;2.92;;;12.80;99.90;;;;;;5060559;28;20448;-67
2023/03/30 08:18:12;;;;;;;12.02;3.08;;;12.80;99.90;;;;;;5047201;28;20033;-67
2023/03/30 08:20:40;;;;;;;13.95;2.95;;;12.80;99.90;;;;;;5069991;28;20047;-67
2023/03/30 08:23:09;;;;;;;10.85;2.95;;;12.70;99.90;;;;;;5069540;28;20044;-67
2023/03/30 08:25:35;;;;;;;10.85;2.90;;;12.70;99.90;;;;;;5067522;28;20032;-68
2023/03/30 08:28:03;;;;;;;14.18;3.45;;;12.70;99.90;;;;;;5068986;28;20040;-67
2023/03/30 08:30:29;;;;;;;8.20;3.25;;;12.60;99.90;;;;;;5067772;28;20041;-67
2023/03/30 08:32:54;;;;;;;15.77;4.05;;;12.60;99.90;;;;;;5068749;28;20111;-67
2023/03/30 08:35:23;;;;;;;11.93;3.15;;;12.60;99.90;;;;;;5050489;28;20037;-67
2023/03/30 08:37:49;;;;;;;11.93;3.75;;;12.60;99.90;;;;;;5059199;28;20048;-67
2023/03/30 08:40:15;;;;;;;14.48;3.88;;;12.60;99.90;;;;;;5069151;28;20048;-68
2023/03/30 08:43:02;;;;;;;13.57;3.53;;;12.60;99.90;;;;;;5051798;28;20044;-68
2023/03/30 08:45:39;;;;;;;13.88;3.13;;;12.60;99.90;;;;;;5068009;28;20036;-67
2023/03/30 08:48:15;;;;;;;14.18;3.28;;;12.70;99.90;;;;;;5072617;28;20074;-67
2023/03/30 08:50:45;;;;;;;9.88;3.30;;;12.70;99.90;;;;;;5073769;28;20116;-67
2023/03/30 08:53:11;;;;;;;19.98;3.85;;;12.80;99.90;;;;;;5072728;28;20486;-67
2023/03/30 08:55:56;;;;;;;18.13;3.85;;;12.80;99.90;;;;;;5073021;28;20031;-67
2023/03/30 08:58:50;;;;;;;15.25;3.05;;;12.60;99.90;;;;;;5070645;28;20448;-67
2023/03/30 09:01:18;;;;;;;17.15;3.58;;;12.30;99.90;;;;;;5069720;28;20033;-67
2023/03/30 09:03:53;;;;;;;17.23;4.00;;;12.00;99.90;;;;;;5049406;28;20041;-68
2023/03/30 09:06:38;;;;;;;15.00;3.42;;;11.80;99.90;;;;;;5063961;28;20051;-67
2023/03/30 09:09:06;;;;;;;15.13;4.32;;;11.70;99.90;;;;;;5059528;28;20120;-68
2023/03/30 09:11:35;;;;;;;10.50;3.63;;;11.60;99.90;;;;;;5069270;28;20107;-67
2023/03/30 09:14:05;;;;;;;14.10;3.80;;;11.70;99.90;;;;;;5064708;28;20094;-67
2023/03/30 09:16:43;;;;;;;14.63;4.10;;;11.80;99.90;;;;;;5069394;28;20036;-67
2023/03/30 09:19:15;;;;;;;15.43;4.30;;;12.20;99.90;;;;;;5070655;28;20043;-67
2023/03/30 09:21:42;;;;;;;14.65;3.72;;;13.00;99.90;;;;;;5058777;28;20050;-67
2023/03/30 09:24:13;;;;;;;22.23;5.32;;;13.90;99.90;;;;;;5043022;28;20128;-68
2023/03/30 09:26:51;;;;;;;15.30;3.88;;;14.20;99.90;;;;;;5067089;28;20052;-67
2023/03/30 09:29:38;;;;;;;16.23;4.53;;;14.60;99.90;;;;;;5074693;28;20037;-68
2023/03/30 09:32:16;;;;;;;13.82;4.18;;;14.60;99.90;;;;;;5058826;28;20051;-67
2023/03/30 09:34:46;;;;;;;13.38;3.75;;;14.80;99.90;;;;;;5068633;28;20099;-68
2023/03/30 09:37:17;;;;;;;19.50;3.70;;;15.40;99.90;;;;;;5070283;28;20057;-68
2023/03/30 09:39:45;;;;;;;17.08;3.42;;;15.60;99.90;;;;;;5071253;28;20094;-68
2023/03/30 09:42:35;;;;;;;12.15;3.67;;;15.40;99.90;;;;;;5072056;28;20533;-68
2023/03/30 09:45:16;;;;;;;12.57;3.40;;;14.60;99.90;;;;;;5068811;28;20043;-68
2023/03/30 09:47:42;;;;;;;13.48;3.72;;;14.20;99.90;;;;;;5040833;28;20329;-68
2023/03/30 09:50:15;;;;;;;13.68;3.70;;;13.70;99.90;;;;;;5071610;28;20052;-68
2023/03/30 09:53:03;;;;;;;12.75;3.40;;;13.40;99.90;;;;;;5072049;28;20102;-67
2023/03/30 09:55:31;;;;;;;10.85;3.33;;;13.20;99.90;;;;;;5072438;28;20036;-67
2023/03/30 09:58:17;;;;;;;16.40;4.13;;;13.10;99.90;;;;;;5067150;28;20043;-67
2023/03/30 10:00:44;;;;;;;18.38;3.17;;;13.00;99.90;;;;;;5068296;28;20127;-67
2023/03/30 10:03:21;;;;;;;13.75;3.00;;;12.90;99.90;;;;;;5068448;28;20098;-67
2023/03/30 10:06:01;;;;;;;12.63;3.42;;;12.90;99.90;;;;;;5069402;28;20047;-68
2023/03/30 10:08:27;;;;;;;11.82;3.53;;;12.80;99.90;;;;;;5059931;28;20501;-68
2023/03/30 10:10:55;;;;;;;13.60;3.10;;;12.70;99.90;;;;;;5067802;28;20501;-67
2023/03/30 10:13:30;;;;;;;16.73;3.75;;;12.70;99.90;;;;;;5065363;28;20071;-68
2023/03/30 10:16:06;;;;;;;21.00;4.18;;;12.80;99.90;;;;;;5064592;28;20108;-68
2023/03/30 10:18:45;;;;;;;11.45;3.10;;;12.80;99.90;;;;;;5064915;28;20098;-68
2023/03/30 10:21:21;;;;;;;12.98;3.55;;;13.40;99.90;;;;;;5044014;28;20063;-68
2023/03/30 10:24:00;;;;;;;12.80;3.55;;;13.60;99.90;;;;;;5061333;28;20115;-68
2023/03/30 10:26:29;;;;;;;14.05;3.28;;;13.80;99.90;;;;;;5061422;28;20042;-67
2023/03/30 10:29:04;;;;;;;15.98;3.70;;;13.70;99.90;;;;;;5053723;28;20044;-68
2023/03/30 10:31:34;;;;;;;11.48;3.20;;;13.50;99.90;;;;;;5043824;28;20482;-68
2023/03/30 10:34:02;;;;;;;9.32;2.72;;;13.30;99.90;;;;;;5056924;28;20087;-68
2023/03/30 10:36:32;;;;;;;10.60;3.03;;;13.20;99.90;;;;;;5061529;28;20040;-68
2023/03/30 10:39:28;;;;;;;13.00;3.00;;;13.10;99.90;;;;;;5059301;28;20144;-68
2023/03/30 10:41:56;;;;;;;6.75;2.10;;;13.10;99.90;;;;;;5036058;28;20071;-68
2023/03/30 10:44:30;;;;;;;11.63;2.85;;;13.00;99.90;;;;;;5054349;28;20090;-67
2023/03/30 10:47:14;;;;;;;10.00;2.78;;;13.10;99.90;;;;;;5063768;28;20056;-68
2023/03/30 10:50:02;;;;;;;11.00;2.55;;;13.80;99.90;;;;;;5056398;28;20052;-70
2023/03/30 10:52:40;;;;;;;6.75;1.90;;;14.60;99.90;;;;;;5059699;28;20444;-68
2023/03/30 10:55:32;;;;;;;8.10;2.30;;;14.50;99.90;;;;;;5063206;28;20040;-68
2023/03/30 10:58:18;;;;;;;;;;;14.40;99.90;;;;;;5049109;28;20127;-69
2023/03/30 11:01:23;;;;;;;9.38;2.47;;;14.70;99.90;;;;;;5051326;28;20013;-69
2023/03/30 11:04:00;;;;;;;8.32;2.83;;;15.30;99.90;;;;;;5034332;28;20055;-68
2023/03/30 11:06:31;;;;;;;6.88;2.38;;;16.10;99.90;;;;;;5034732;28;20092;-68
2023/03/30 11:09:02;;;;;;;13.95;2.60;;;17.00;99.90;;;;;;5038010;28;20091;-68
2023/03/30 11:11:39;;;;;;;6.70;2.00;;;16.90;99.90;;;;;;5054170;28;20075;-68
2023/03/30 11:14:14;;;;;;;10.35;2.80;;;16.50;99.90;;;;;;5049291;28;20405;-68
2023/03/30 11:16:46;;;;;;;13.18;2.47;;;15.70;99.90;;;;;;5056217;28;20070;-68
2023/03/30 11:19:35;;;;;;;9.88;2.85;;;15.50;99.90;;;;;;5055687;28;20043;-68
2023/03/30 11:22:32;;;;;;;8.48;2.20;;;15.00;99.90;;;;;;5050022;28;20048;-70
2023/03/30 11:24:59;;;;;;;11.50;2.30;;;15.60;99.90;;;;;;5055770;28;20033;-69
2023/03/30 11:27:29;;;;;;;10.63;2.50;;;15.50;99.90;;;;;;5051904;28;20036;-69
2023/03/30 11:30:01;;;;;;;15.77;2.97;;;15.30;99.90;;;;;;5049407;28;20048;-69
2023/03/30 11:32:35;;;;;;;6.63;2.10;;;15.60;99.90;;;;;;5067925;28;20037;-69
2023/03/30 11:35:36;;;;;;;8.73;2.42;;;15.40;99.90;;;;;;5069163;28;20036;-69
2023/03/30 11:38:12;;;;;;;11.50;2.50;;;15.30;99.90;;;;;;5045895;28;20048;-69
2023/03/30 11:40:46;;;;;;;14.55;3.17;;;15.30;99.90;;;;;;5075041;28;20044;-69
2023/03/30 11:43:16;;;;;;;11.80;2.38;;;15.40;99.90;;;;;;5064455;28;20077;-69
2023/03/30 11:46:05;;;;;;;10.77;2.28;;;15.30;99.90;;;;;;5069697;28;20036;-69
2023/03/30 11:48:56;;;;;;;10.77;2.47;;;15.20;99.90;;;;;;5068891;28;20546;-69
2023/03/30 11:51:30;;;;;;;9.75;3.05;;;15.10;99.90;;;;;;5066280;28;20051;-69
2023/03/30 11:54:22;;;;;;;9.10;2.70;;;14.90;99.90;;;;;;5060012;28;20036;-69
2023/03/30 11:57:02;;;;;;;10.07;2.30;;;14.80;99.90;;;;;;5047684;28;20040;-68
2023/03/30 11:59:48;;;;;;;12.38;2.45;;;14.70;99.90;;;;;;5067359;28;20037;-68
2023/03/30 12:02:33;;;;;;;8.85;2.53;;;14.50;99.90;;;;;;5060773;28;20083;-69
2023/03/30 12:05:30;;;;;;;11.23;2.53;;;14.40;99.90;;;;;;5070182;28;20057;-69
2023/03/30 12:08:22;;;;;;;14.50;2.85;;;14.30;99.90;;;;;;5057871;28;20052;-69
2023/03/30 12:11:06;;;;;;;13.97;2.77;;;14.30;99.90;;;;;;5061757;28;20048;-68
2023/03/30 12:13:32;;;;;;;10.85;3.17;;;14.70;99.90;;;;;;5067983;28;20278;-69
2023/03/30 12:16:05;;;;;;;12.40;2.60;;;15.10;99.90;;;;;;5057738;28;20122;-69
2023/03/30 12:19:01;;;;;;;12.25;2.85;;;15.50;99.90;;;;;;5069508;28;20574;-69
2023/03/30 12:21:34;;;;;;;10.63;2.80;;;15.70;99.90;;;;;;5070100;28;20117;-68
2023/03/30 12:24:19;;;;;;;10.55;2.70;;;15.70;99.90;;;;;;5055630;28;20139;-69
2023/03/30 12:26:47;;;;;;;14.80;2.70;;;15.50;99.90;;;;;;5072880;28;20233;-68
2023/03/30 12:29:16;;;;;;;15.63;3.28;;;15.30;99.90;;;;;;5071676;28;20083;-69
2023/03/30 12:32:02;;;;;;;14.23;2.67;;;15.10;99.90;;;;;;5065018;28;20067;-68
2023/03/30 12:34:35;;;;;;;9.88;2.92;;;14.90;99.90;;;;;;5072938;28;20036;-69
2023/03/30 12:37:11;;;;;;;10.85;2.55;;;15.20;99.90;;;;;;5071109;28;20112;-69
2023/03/30 12:40:05;;;;;;;10.25;2.90;;;15.50;99.90;;;;;;5070992;28;20063;-69
2023/03/30 12:42:44;;;;;;;10.15;2.97;;;15.70;99.90;;;;;;5071006;28;20048;-69
2023/03/30 12:45:31;;;;;;;15.25;2.90;;;15.90;99.90;;;;;;5071449;28;20048;-69
2023/03/30 12:48:32;;;;;;;12.45;3.10;;;15.70;99.90;;;;;;5063198;28;20083;-69
2023/03/30 12:51:02;;;;;;;9.93;3.28;;;15.70;99.90;;;;;;5068269;28;20041;-69
2023/03/30 12:53:52;;;;;;;10.52;2.55;;;15.90;99.90;;;;;;5070349;28;20375;-69
2023/03/30 12:56:45;;;;;;;12.52;2.42;;;16.50;99.90;;;;;;5071142;28;20028;-69
2023/03/30 12:59:29;;;;;;;9.50;2.33;;;16.40;99.50;;;;;;5072755;28;20419;-69
2023/03/30 13:02:04;;;;;;;13.95;2.60;;;16.10;99.60;;;;;;5069498;28;20071;-69
2023/03/30 13:04:39;;;;;;;11.55;2.67;;;15.70;99.90;;;;;;5072506;28;20494;-69
2023/03/30 13:07:19;;;;;;;14.38;2.72;;;15.80;99.90;;;;;;5069624;28;20041;-69
2023/03/30 13:09:54;;;;;;;9.43;3.13;;;15.90;99.90;;;;;;5069401;28;20045;-69
2023/03/30 13:12:26;;;;;;;9.70;3.28;;;15.70;99.90;;;;;;5068630;28;20193;-69